Time;durP1;ratioP1;P1;durP2;ratioP2;P2;SDS_P1;SDS_P2;PMS_P1;PMS_P2;Temp;Humidity;BMP_temperature;BMP_pressure;BME280_temperature;BME280_humidity;BME280_pressure;Samples;Min_cycle;Max_cycle;Signal;HPM_P1;HPM_P2
2022/08/19 00:00:31;;;;;;;17.70;10.00;;;;;;;20.53;99.18;99546.58;104982;1274;72877;-74
2022/08/19 00:03:19;;;;;;;16.00;10.30;;;;;;;20.54;99.24;99542.01;104851;1274;60104;-72
2022/08/19 00:06:08;;;;;;;15.00;10.10;;;;;;;20.55;99.36;99542.51;104839;1274;60916;-72
2022/08/19 00:08:59;;;;;;;15.90;10.10;;;;;;;20.56;99.11;99540.73;105071;1273;73428;-72
2022/08/19 00:11:47;;;;;;;15.50;10.50;;;;;;;20.57;99.28;99540.09;104792;1273;69627;-71
2022/08/19 00:14:37;;;;;;;14.70;9.80;;;;;;;20.57;99.17;99533.48;105049;1274;72875;-73
2022/08/19 00:17:25;;;;;;;19.60;10.80;;;;;;;20.57;99.24;99528.80;104977;1274;59848;-72
2022/08/19 00:20:19;;;;;;;18.40;9.90;;;;;;;20.55;99.04;99529.63;105034;1274;62056;-72
2022/08/19 00:23:10;;;;;;;18.50;10.40;;;;;;;20.54;99.31;99528.63;105124;1274;73295;-72
2022/08/19 00:25:57;;;;;;;17.00;10.10;;;;;;;20.55;99.32;99533.78;104878;1274;68637;-72
2022/08/19 00:28:46;;;;;;;17.10;10.30;;;;;;;20.53;99.18;99539.05;104906;1274;74465;-72
2022/08/19 00:31:35;;;;;;;18.90;9.80;;;;;;;20.51;99.40;99544.94;104871;1274;61582;-74
2022/08/19 00:34:27;;;;;;;14.50;10.00;;;;;;;20.50;99.35;99549.38;104855;1274;61057;-71
2022/08/19 00:37:15;;;;;;;17.60;10.90;;;;;;;20.48;99.60;99550.33;104746;1273;74755;-72
2022/08/19 00:40:06;;;;;;;16.10;10.30;;;;;;;20.46;99.52;99548.23;104894;1274;66787;-73
2022/08/19 00:42:54;;;;;;;15.00;9.90;;;;;;;20.45;99.67;99547.56;104813;1274;70881;-72
2022/08/19 00:45:43;;;;;;;18.30;10.70;;;;;;;20.45;99.60;99549.64;105051;1274;61134;-73
2022/08/19 00:48:33;;;;;;;16.30;9.90;;;;;;;20.46;99.78;99552.59;104944;1274;60646;-72
2022/08/19 00:51:22;;;;;;;17.20;10.90;;;;;;;20.45;99.77;99554.42;104808;1273;72010;-73
2022/08/19 00:54:10;;;;;;;17.90;9.90;;;;;;;20.46;99.95;99558.33;105152;1272;68044;-72
2022/08/19 00:57:03;;;;;;;16.90;10.30;;;;;;;20.46;99.89;99556.42;104780;1274;71635;-73
2022/08/19 00:59:55;;;;;;;15.90;10.20;;;;;;;20.49;99.77;99560.43;104831;1274;59854;-72
2022/08/19 01:02:49;;;;;;;19.00;10.30;;;;;;;20.51;99.71;99563.64;104772;1274;61997;-72
2022/08/19 01:05:43;;;;;;;15.90;10.00;;;;;;;20.53;99.71;99560.84;104851;1273;72994;-71
2022/08/19 01:08:31;;;;;;;15.90;10.00;;;;;;;20.56;99.73;99559.90;104795;1274;68109;-71
2022/08/19 01:11:19;;;;;;;16.50;9.90;;;;;;;20.58;99.59;99556.68;104972;1274;74232;-72
2022/08/19 01:14:09;;;;;;;16.60;9.70;;;;;;;20.61;99.47;99556.77;104828;1272;60287;-72
2022/08/19 01:16:59;;;;;;;14.70;9.80;;;;;;;20.62;99.10;99558.95;104940;1272;62157;-72
2022/08/19 01:19:48;;;;;;;15.10;9.30;;;;;;;20.63;98.93;99559.91;105037;1274;73338;-72
2022/08/19 01:22:45;;;;;;;15.10;10.50;;;;;;;20.62;98.93;99559.73;104863;1274;68010;-72
2022/08/19 01:26:00;;;;;;;16.40;9.80;;;;;;;20.61;98.60;99553.16;104831;1272;73390;-72
2022/08/19 01:28:58;;;;;;;14.80;9.80;;;;;;;20.59;98.81;99557.23;105075;1274;61120;-71
2022/08/19 01:31:48;;;;;;;14.50;9.40;;;;;;;20.58;98.71;99555.71;104964;1274;59815;-70
2022/08/19 01:34:36;;;;;;;15.60;10.10;;;;;;;20.57;98.72;99556.55;104916;1274;73131;-71
2022/08/19 01:37:24;;;;;;;16.00;9.90;;;;;;;20.54;98.53;99551.86;104977;1274;67801;-71
2022/08/19 01:40:16;;;;;;;15.50;10.50;;;;;;;20.50;98.29;99551.52;104950;1274;73343;-70
2022/08/19 01:43:05;;;;;;;15.50;10.10;;;;;;;20.48;98.44;99550.86;104758;1274;60280;-72
2022/08/19 01:45:53;;;;;;;16.10;9.40;;;;;;;20.45;98.56;99552.84;105148;1274;61057;-73
2022/08/19 01:48:44;;;;;;;18.80;9.90;;;;;;;20.43;98.59;99551.33;104786;1274;74623;-72
2022/08/19 01:51:32;;;;;;;18.50;9.80;;;;;;;20.39;98.40;99549.56;104813;1274;69575;-71
2022/08/19 01:54:27;;;;;;;14.30;10.10;;;;;;;20.37;98.28;99556.52;105101;1274;71790;-72
2022/08/19 01:57:15;;;;;;;16.40;10.20;;;;;;;20.36;97.90;99556.30;105078;1274;60227;-73
2022/08/19 02:00:10;;;;;;;15.70;10.10;;;;;;;20.40;97.38;99551.73;103837;1274;1398292;-71
2022/08/19 02:02:59;;;;;;;18.90;10.60;;;;;;;20.44;96.57;99553.13;104774;1273;71416;-72
2022/08/19 02:05:46;;;;;;;17.10;10.60;;;;;;;20.49;96.24;99555.07;104839;1272;68422;-71
2022/08/19 02:08:38;;;;;;;15.10;10.90;;;;;;;20.52;96.05;99554.96;105097;1274;74435;-72
2022/08/19 02:11:31;;;;;;;17.00;11.10;;;;;;;20.56;95.63;99556.08;104852;1274;60140;-75
2022/08/19 02:14:19;;;;;;;17.40;11.40;;;;;;;20.59;95.45;99556.23;105040;1274;61134;-73
2022/08/19 02:17:07;;;;;;;18.00;11.50;;;;;;;20.60;95.26;99553.83;105193;1274;72129;-72
2022/08/19 02:19:56;;;;;;;15.50;10.60;;;;;;;20.62;95.00;99554.70;104857;1274;69541;-72
2022/08/19 02:22:44;;;;;;;17.60;10.70;;;;;;;20.62;95.07;99553.63;104920;1274;74241;-72
2022/08/19 02:25:32;;;;;;;18.10;11.90;;;;;;;20.60;95.12;99551.98;105091;1274;60784;-73
2022/08/19 02:28:20;;;;;;;16.00;11.10;;;;;;;20.60;95.02;99553.11;104794;1273;62335;-72
2022/08/19 02:31:12;;;;;;;17.30;11.30;;;;;;;20.59;94.80;99554.31;104864;1274;74655;-73
2022/08/19 02:34:00;;;;;;;18.40;11.60;;;;;;;20.57;94.60;99552.19;104800;1274;68481;-73
2022/08/19 02:36:48;;;;;;;20.90;11.50;;;;;;;20.56;94.75;99547.10;104774;1273;72823;-72
2022/08/19 02:39:38;;;;;;;17.30;11.00;;;;;;;20.54;94.65;99546.42;104800;1274;59753;-73
2022/08/19 02:42:26;;;;;;;17.00;11.10;;;;;;;20.51;95.02;99545.60;104939;1273;61084;-73
2022/08/19 02:45:15;;;;;;;18.30;11.20;;;;;;;20.47;95.04;99542.91;104837;1274;71876;-72
2022/08/19 02:48:04;;;;;;;17.50;11.10;;;;;;;20.41;95.21;99541.34;104817;1274;68043;-72
2022/08/19 02:51:05;;;;;;;16.90;11.00;;;;;;;20.35;95.41;99539.61;105104;1274;71723;-73
2022/08/19 02:53:53;;;;;;;18.00;10.80;;;;;;;20.31;95.85;99541.83;104900;1274;61189;-74
2022/08/19 02:56:43;;;;;;;17.00;10.50;;;;;;;20.27;95.97;99545.25;104919;1274;61093;-71
2022/08/19 02:59:32;;;;;;;18.10;10.90;;;;;;;20.23;96.24;99549.34;104846;1274;72502;-72
2022/08/19 03:02:20;;;;;;;17.40;10.40;;;;;;;20.19;96.62;99552.16;104966;1273;69018;-74
2022/08/19 03:05:10;;;;;;;16.70;10.60;;;;;;;20.16;96.89;99550.97;104993;1273;74286;-72
2022/08/19 03:07:58;;;;;;;17.90;11.30;;;;;;;20.13;97.27;99553.81;104932;1274;61208;-73
2022/08/19 03:10:47;;;;;;;19.90;11.50;;;;;;;20.10;97.60;99549.85;104869;1274;60616;-71
2022/08/19 03:13:35;;;;;;;17.20;11.00;;;;;;;20.09;97.71;99550.58;105079;1274;74713;-72
2022/08/19 03:16:27;;;;;;;16.80;10.60;;;;;;;20.08;97.84;99552.65;104879;1274;68775;-75
2022/08/19 03:19:23;;;;;;;15.60;10.60;;;;;;;20.08;98.00;99553.36;105282;1274;71945;-74
2022/08/19 03:22:12;;;;;;;18.90;11.30;;;;;;;20.11;98.00;99554.21;105121;1274;59797;-72
2022/08/19 03:25:00;;;;;;;17.80;11.00;;;;;;;20.13;98.08;99551.66;104761;1274;61991;-72
2022/08/19 03:27:49;;;;;;;16.10;11.40;;;;;;;20.14;98.45;99548.80;104887;1274;73564;-72
2022/08/19 03:30:55;;;;;;;16.50;10.90;;;;;;;20.14;98.26;99552.30;104820;1273;68102;-72
2022/08/19 03:33:44;;;;;;;16.00;10.40;;;;;;;20.13;98.62;99553.58;105088;1274;72921;-76
2022/08/19 03:36:32;;;;;;;18.30;11.20;;;;;;;20.14;98.47;99561.27;104913;1274;59762;-74
2022/08/19 03:39:22;;;;;;;17.50;10.50;;;;;;;20.15;98.62;99564.27;104955;1274;61796;-67
2022/08/19 03:42:12;;;;;;;17.50;10.60;;;;;;;20.17;98.55;99557.06;105190;1274;73848;-68
2022/08/19 03:45:20;;;;;;;16.40;10.90;;;;;;;20.21;98.53;99547.95;105951;1271;67358;-66
2022/08/19 03:48:08;;;;;;;16.10;10.70;;;;;;;20.26;98.65;99549.81;105057;1271;74374;-66
2022/08/19 03:50:58;;;;;;;19.10;11.50;;;;;;;20.30;98.47;99547.73;104881;1271;59935;-66
2022/08/19 03:53:47;;;;;;;16.50;10.70;;;;;;;20.33;98.02;99548.80;105168;1274;60526;-66
2022/08/19 03:56:37;;;;;;;15.10;10.40;;;;;;;20.35;97.96;99550.85;104987;1274;74702;-67
2022/08/19 03:59:35;;;;;;;17.40;11.00;;;;;;;20.37;97.84;99549.86;105010;1274;69175;-69
2022/08/19 04:02:24;;;;;;;15.90;11.20;;;;;;;20.39;97.42;99555.54;105088;1273;73465;-67
2022/08/19 04:05:13;;;;;;;18.10;11.40;;;;;;;20.41;97.38;99556.95;105091;1274;59800;-65
2022/08/19 04:08:02;;;;;;;19.60;11.80;;;;;;;20.45;96.82;99558.11;105103;1274;62020;-65
2022/08/19 04:10:50;;;;;;;19.80;11.50;;;;;;;20.47;96.51;99555.05;104951;1274;74713;-67
2022/08/19 04:13:38;;;;;;;17.40;10.60;;;;;;;20.52;96.30;99562.91;104873;1274;69038;-67
2022/08/19 04:16:28;;;;;;;17.00;11.00;;;;;;;20.59;96.14;99568.48;104797;1274;72135;-70
2022/08/19 04:19:23;;;;;;;17.20;11.90;;;;;;;20.65;95.82;99570.63;104972;1271;60091;-66
2022/08/19 04:22:11;;;;;;;18.50;10.70;;;;;;;20.71;95.49;99572.73;104748;1271;61035;-68
2022/08/19 04:24:59;;;;;;;17.70;10.70;;;;;;;20.79;95.27;99571.82;104768;1271;73866;-66
2022/08/19 04:27:48;;;;;;;17.30;11.20;;;;;;;20.84;95.00;99567.91;104779;1271;67862;-66
2022/08/19 04:30:47;;;;;;;19.00;11.60;;;;;;;20.91;94.77;99565.11;104895;1269;73556;-65
2022/08/19 04:33:35;;;;;;;18.60;11.70;;;;;;;20.97;94.08;99562.61;104784;1274;60381;-67
2022/08/19 04:36:27;;;;;;;19.40;12.30;;;;;;;21.03;94.16;99563.05;104867;1271;61486;-65
2022/08/19 04:39:18;;;;;;;17.00;11.40;;;;;;;21.07;94.00;99560.21;104905;1271;74763;-65
2022/08/19 04:45:18;;;;;;;18.10;11.60;;;;;;;21.22;93.23;99563.90;104935;1271;74755;-66
2022/08/19 04:48:09;;;;;;;19.20;11.10;;;;;;;21.30;92.31;99565.36;104578;1274;59810;-70
2022/08/19 04:51:13;;;;;;;18.80;11.30;;;;;;;21.41;90.95;99563.86;105283;1274;60770;-68
2022/08/19 04:54:03;;;;;;;17.90;11.00;;;;;;;21.56;90.51;99559.69;104690;1274;73959;-67
2022/08/19 04:56:52;;;;;;;17.30;10.60;;;;;;;21.70;89.34;99559.57;104897;1274;68744;-67
2022/08/19 04:59:41;;;;;;;19.50;11.70;;;;;;;21.86;89.44;99563.06;105076;1274;72854;-67
2022/08/19 05:02:29;;;;;;;20.20;11.50;;;;;;;22.02;88.11;99568.33;104804;1273;59735;-68
2022/08/19 05:05:19;;;;;;;20.40;12.10;;;;;;;22.15;87.71;99568.05;104608;1273;60263;-68
2022/08/19 05:08:07;;;;;;;18.30;11.80;;;;;;;22.29;86.93;99569.45;104621;1274;72894;-69
2022/08/19 05:10:57;;;;;;;16.40;11.10;;;;;;;22.41;85.11;99559.26;104699;1274;67839;-70
2022/08/19 05:13:46;;;;;;;24.00;13.00;;;;;;;22.58;84.65;99563.09;104717;1274;74276;-68
2022/08/19 05:16:35;;;;;;;18.50;11.40;;;;;;;22.72;83.27;99568.23;104575;1274;59879;-66
2022/08/19 05:22:34;;;;;;;20.20;11.00;;;;;;;23.06;81.10;99565.65;104982;1274;74905;-64
2022/08/19 05:25:24;;;;;;;18.80;11.00;;;;;;;23.25;80.51;99566.91;104945;1274;68613;-64
2022/08/19 05:28:11;;;;;;;19.10;10.80;;;;;;;23.42;79.26;99568.95;105126;1273;74364;-65
2022/08/19 05:30:59;;;;;;;20.60;11.20;;;;;;;23.57;78.67;99573.55;104734;1274;59669;-68
2022/08/19 05:33:48;;;;;;;18.70;10.90;;;;;;;23.64;77.88;99571.84;104715;1274;59686;-67
2022/08/19 05:36:40;;;;;;;18.40;11.50;;;;;;;23.69;76.78;99563.87;104950;1274;74803;-69
2022/08/19 05:39:32;;;;;;;18.50;11.50;;;;;;;23.80;76.72;99558.76;104681;1274;68526;-66
2022/08/19 05:42:23;;;;;;;16.60;10.90;;;;;;;23.99;76.34;99560.29;104691;1274;74431;-66
2022/08/19 05:45:12;;;;;;;18.70;10.80;;;;;;;24.56;75.15;99564.48;104665;1274;59656;-69
2022/08/19 05:48:00;;;;;;;20.50;10.30;;;;;;;25.35;72.21;99567.98;104748;1271;60688;-71
2022/08/19 05:50:50;;;;;;;17.60;10.20;;;;;;;26.15;68.45;99574.73;105123;1274;73255;-72
2022/08/19 05:53:38;;;;;;;16.90;9.70;;;;;;;26.77;62.34;99578.33;105065;1271;69902;-73
2022/08/19 05:56:26;;;;;;;14.50;9.30;;;;;;;27.21;61.81;99578.42;105011;1274;74458;-71
2022/08/19 05:59:16;;;;;;;14.40;9.10;;;;;;;27.76;60.46;99576.20;104999;1272;59683;-69
2022/08/19 06:02:06;;;;;;;14.20;8.20;;;;;;;28.22;56.54;99576.50;104790;1274;61011;-69
2022/08/19 06:04:54;;;;;;;12.60;8.20;;;;;;;28.11;56.48;99583.91;104842;1274;74091;-70
2022/08/19 06:07:42;;;;;;;14.40;8.20;;;;;;;28.35;56.68;99591.38;104764;1274;68591;-69
2022/08/19 06:10:30;;;;;;;15.10;8.30;;;;;;;28.87;55.29;99594.94;104819;1274;73290;-69
2022/08/19 06:13:19;;;;;;;16.50;11.60;;;;;;;29.17;52.99;99599.59;104678;1274;59675;-70
2022/08/19 06:16:07;;;;;;;12.70;7.50;;;;;;;29.44;52.19;99596.38;105071;1274;59752;-70
2022/08/19 06:19:00;;;;;;;14.30;7.80;;;;;;;29.53;51.42;99592.65;104750;1274;74776;-70
2022/08/19 06:21:51;;;;;;;15.20;8.50;;;;;;;29.40;51.52;99592.00;104965;1274;68880;-73
2022/08/19 06:24:39;;;;;;;17.70;9.00;;;;;;;29.37;51.56;99591.91;104876;1274;72462;-71
2022/08/19 06:27:26;;;;;;;12.30;7.00;;;;;;;29.72;50.58;99585.08;105187;1271;59708;-70
2022/08/19 06:30:15;;;;;;;14.50;8.10;;;;;;;29.26;50.14;99591.77;104827;1271;62039;-69
2022/08/19 06:33:03;;;;;;;13.40;7.80;;;;;;;28.90;51.16;99589.89;104840;1271;73632;-70
2022/08/19 06:35:51;;;;;;;14.60;7.60;;;;;;;28.58;51.88;99596.64;105036;1271;69577;-69
2022/08/19 06:38:39;;;;;;;12.30;7.70;;;;;;;28.25;52.35;99592.98;104765;1271;73527;-71
2022/08/19 06:41:33;;;;;;;15.80;8.10;;;;;;;28.48;52.30;99589.46;105119;1271;60289;-70
2022/08/19 06:44:28;;;;;;;11.80;7.40;;;;;;;28.87;51.58;99592.98;104943;1272;59734;-69
2022/08/19 06:47:21;;;;;;;14.30;7.50;;;;;;;29.46;49.97;99585.77;104785;1271;74710;-71
2022/08/19 06:50:15;;;;;;;13.00;7.00;;;;;;;29.91;47.65;99587.70;105132;1271;69608;-70
2022/08/19 06:53:05;;;;;;;13.60;7.20;;;;;;;30.23;47.01;99591.24;105002;1271;71571;-68
2022/08/19 06:55:59;;;;;;;12.20;6.50;;;;;;;30.67;45.57;99584.70;104853;1271;59990;-69
2022/08/19 06:58:51;;;;;;;9.60;6.30;;;;;;;31.11;44.33;99585.38;104922;1271;60316;-71
2022/08/19 07:01:49;;;;;;;14.40;6.80;;;;;;;31.44;43.61;99576.40;104994;1271;73728;-71
2022/08/19 07:04:38;;;;;;;13.50;7.00;;;;;;;31.80;42.22;99574.60;104922;1271;69597;-69
2022/08/19 07:07:31;;;;;;;11.50;6.40;;;;;;;32.12;42.15;99570.18;104923;1271;72333;-69
2022/08/19 07:10:20;;;;;;;12.60;6.50;;;;;;;32.47;41.45;99572.98;104859;1271;59810;-68
2022/08/19 07:13:12;;;;;;;12.80;6.20;;;;;;;32.75;41.30;99573.98;105548;1271;60424;-69
2022/08/19 07:16:07;;;;;;;14.70;6.70;;;;;;;32.96;40.41;99572.88;105087;1271;73774;-72
2022/08/19 07:18:56;;;;;;;12.50;6.80;;;;;;;33.17;40.00;99572.58;104864;1271;67512;-69
2022/08/19 07:21:46;;;;;;;13.30;6.70;;;;;;;33.20;39.63;99573.41;104792;1271;74543;-69
2022/08/19 07:24:35;;;;;;;12.60;5.90;;;;;;;33.47;39.86;99568.73;104705;1274;59633;-69
2022/08/19 07:27:24;;;;;;;12.20;6.10;;;;;;;34.03;39.43;99568.95;104941;1271;60432;-69
2022/08/19 07:30:13;;;;;;;9.90;5.60;;;;;;;34.36;37.79;99570.76;104763;1274;71388;-69
2022/08/19 07:33:00;;;;;;;12.80;6.10;;;;;;;34.48;37.65;99575.95;104859;1274;68378;-70
2022/08/19 07:35:50;;;;;;;10.50;6.00;;;;;;;34.48;37.30;99577.05;104912;1273;74426;-70
2022/08/19 07:38:46;;;;;;;14.10;6.20;;;;;;;34.58;37.70;99573.43;104750;1273;59576;-68
2022/08/19 07:41:36;;;;;;;12.90;6.10;;;;;;;34.71;37.28;99573.96;104774;1274;59627;-69
2022/08/19 07:44:25;;;;;;;13.30;6.20;;;;;;;34.34;36.95;99565.25;105115;1274;74289;-69
2022/08/19 07:47:15;;;;;;;13.20;6.20;;;;;;;34.25;37.42;99570.11;104964;1274;69927;-71
2022/08/19 07:50:23;;;;;;;10.10;5.80;;;;;;;34.46;37.34;99565.88;105001;1272;73328;-71
2022/08/19 07:53:12;;;;;;;10.10;5.80;;;;;;;34.50;36.59;99564.34;104815;1274;59664;-70
2022/08/19 07:56:03;;;;;;;11.80;5.70;;;;;;;34.30;36.49;99565.11;104844;1274;59747;-69
2022/08/19 07:58:53;;;;;;;12.70;6.10;;;;;;;33.91;37.02;99560.98;104816;1274;74717;-70
2022/08/19 08:01:45;;;;;;;12.00;5.70;;;;;;;33.63;37.30;99552.70;104761;1274;68667;-69
2022/08/19 08:10:48;;;;;;;12.60;5.90;;;;;;;33.62;37.66;99555.96;104290;1277;60506;-71
2022/08/19 08:13:43;;;;;;;13.90;5.90;;;;;;;33.79;37.71;99559.52;104931;1277;74329;-70
2022/08/19 08:16:37;;;;;;;12.30;6.10;;;;;;;34.02;37.21;99557.88;104694;1277;66991;-71
2022/08/19 08:19:35;;;;;;;11.90;5.10;;;;;;;34.11;37.35;99556.98;104285;1277;72322;-69
2022/08/19 08:25:32;;;;;;;11.50;6.10;;;;;;;34.53;36.74;99554.81;104496;1277;61828;-70
2022/08/19 08:28:23;;;;;;;11.50;5.80;;;;;;;34.59;36.42;99554.52;104761;1276;74442;-70
2022/08/19 08:31:12;;;;;;;11.70;5.80;;;;;;;34.70;36.86;99552.76;104271;1277;67449;-70
2022/08/19 08:34:01;;;;;;;13.50;6.60;;;;;;;34.40;36.94;99552.11;104365;1277;73533;-71
2022/08/19 08:36:50;;;;;;;12.20;6.40;;;;;;;34.37;37.27;99548.44;105036;1271;61072;-70
2022/08/19 08:39:38;;;;;;;11.50;6.30;;;;;;;34.13;37.45;99548.13;104777;1271;60265;-70
2022/08/19 08:42:36;;;;;;;11.90;6.90;;;;;;;33.64;37.83;99547.95;104972;1271;74802;-72
2022/08/19 08:45:24;;;;;;;12.50;6.60;;;;;;;33.17;39.05;99543.27;104950;1271;68326;-71
2022/08/19 08:48:49;;;;;;;13.50;7.00;;;;;;;33.21;40.08;99544.58;104840;1271;73156;-70
2022/08/19 08:51:51;;;;;;;14.70;7.30;;;;;;;33.34;39.63;99544.42;105018;1274;59768;-69
2022/08/19 08:54:51;;;;;;;13.70;7.40;;;;;;;33.35;39.83;99543.66;105020;1271;60262;-71
2022/08/19 08:57:48;;;;;;;14.90;7.60;;;;;;;33.34;40.16;99543.11;105430;1268;73767;-74
2022/08/19 09:00:42;;;;;;;15.20;7.40;;;;;;;33.92;39.51;99537.23;105001;1271;68397;-74
2022/08/19 09:03:30;;;;;;;19.90;8.60;;;;;;;34.94;37.94;99536.91;104964;1271;74192;-73
2022/08/19 09:06:36;;;;;;;14.30;7.10;;;;;;;35.84;36.76;99536.31;105125;1271;59932;-74
2022/08/19 09:09:50;;;;;;;19.00;7.30;;;;;;;36.69;34.64;99532.98;105396;1274;61872;-75
2022/08/19 09:13:32;;;;;;;13.80;6.60;;;;;;;37.93;33.17;99529.71;105168;1271;73894;-74
2022/08/19 09:16:27;;;;;;;15.60;7.10;;;;;;;39.03;30.36;99529.02;105014;1271;68771;-72
2022/08/19 09:19:17;;;;;;;14.40;6.90;;;;;;;39.72;29.78;99520.34;105062;1271;71602;-73
2022/08/19 09:22:09;;;;;;;18.90;7.20;;;;;;;40.29;29.02;99508.24;105103;1271;59781;-73
2022/08/19 09:24:57;;;;;;;15.10;6.40;;;;;;;40.57;28.68;99512.60;105221;1271;62030;-74
2022/08/19 09:27:45;;;;;;;14.20;6.80;;;;;;;40.95;28.54;99512.27;105003;1271;74983;-72
2022/08/19 09:30:40;;;;;;;15.30;5.70;;;;;;;41.35;27.56;99511.67;105040;1271;69597;-76
2022/08/19 09:33:28;;;;;;;13.80;5.80;;;;;;;40.96;27.24;99512.78;104957;1271;74226;-76
2022/08/19 09:36:22;;;;;;;10.40;5.30;;;;;;;40.59;28.06;99516.50;105171;1271;59678;-74
2022/08/19 09:39:22;;;;;;;9.50;5.10;;;;;;;40.85;28.21;99512.17;105008;1271;61446;-74
2022/08/19 09:42:12;;;;;;;11.50;5.20;;;;;;;41.11;27.70;99504.27;104992;1271;73691;-73
2022/08/19 09:45:07;;;;;;;9.90;5.00;;;;;;;41.47;27.19;99502.27;105378;1274;69734;-75
2022/08/19 09:47:57;;;;;;;13.90;5.60;;;;;;;41.79;27.18;99500.02;105237;1271;74375;-75
2022/08/19 09:50:45;;;;;;;14.60;5.40;;;;;;;41.78;26.47;99498.48;105171;1271;59714;-74
2022/08/19 09:53:39;;;;;;;11.80;5.00;;;;;;;41.82;26.33;99495.83;105328;1271;60468;-72
2022/08/19 09:56:28;;;;;;;11.70;4.90;;;;;;;41.99;26.18;99496.52;105102;1271;73620;-74
2022/08/19 09:59:16;;;;;;;12.20;4.90;;;;;;;42.11;26.18;99498.36;105307;1271;68747;-73
2022/08/19 10:02:03;;;;;;;10.90;4.70;;;;;;;42.28;26.11;99496.98;105054;1271;74415;-73
2022/08/19 10:08:18;;;;;;;12.90;4.40;;;;;;;42.72;25.50;99493.77;105002;1274;62492;-72
2022/08/19 10:11:09;;;;;;;12.50;4.60;;;;;;;42.83;25.52;99495.69;104984;1274;73783;-74
2022/08/19 10:14:21;;;;;;;12.30;4.10;;;;;;;43.12;25.44;99494.33;105323;1271;68348;-73
2022/08/19 10:17:10;;;;;;;10.70;4.90;;;;;;;42.81;25.17;99487.70;105101;1271;72610;-75
2022/08/19 10:20:07;;;;;;;12.10;4.60;;;;;;;41.98;26.34;99481.97;105098;1271;59700;-74
2022/08/19 10:22:54;;;;;;;9.10;4.50;;;;;;;41.44;26.77;99479.55;105283;1271;60601;-74
2022/08/19 10:25:42;;;;;;;11.80;5.10;;;;;;;40.84;28.16;99476.27;104990;1271;74565;-72
2022/08/19 10:28:40;;;;;;;13.50;4.90;;;;;;;40.26;28.43;99471.18;105080;1271;68095;-73
2022/08/19 10:31:34;;;;;;;13.10;5.50;;;;;;;39.24;29.83;99467.27;104998;1271;74461;-73
2022/08/19 10:34:42;;;;;;;12.30;5.30;;;;;;;38.34;31.25;99464.38;105222;1271;59889;-72
2022/08/19 10:37:36;;;;;;;17.80;8.10;;;;;;;37.72;32.39;99460.79;105023;1274;62006;-72
2022/08/19 10:40:43;;;;;;;11.60;5.80;;;;;;;37.21;33.13;99455.09;105181;1274;75097;-72
2022/08/19 10:43:31;;;;;;;12.10;6.20;;;;;;;36.79;33.87;99458.46;105230;1271;66552;-73
2022/08/19 10:46:18;;;;;;;13.80;6.00;;;;;;;36.29;34.66;99455.48;105045;1274;73355;-72
2022/08/19 10:49:10;;;;;;;15.00;7.20;;;;;;;36.09;35.38;99454.89;104972;1271;59647;-72
2022/08/19 10:58:22;;;;;;;15.10;6.10;;;;;;;35.98;35.27;99448.23;105190;1271;68007;-71
2022/08/19 11:01:10;;;;;;;13.70;6.50;;;;;;;36.21;34.77;99442.28;104966;1271;72956;-73
2022/08/19 11:03:59;;;;;;;14.90;7.90;;;;;;;36.47;34.10;99435.48;105000;1274;59720;-72
2022/08/19 11:06:50;;;;;;;12.70;6.30;;;;;;;37.11;33.06;99433.13;104873;1274;60700;-72
2022/08/19 11:09:46;;;;;;;13.80;8.10;;;;;;;37.70;32.48;99426.19;104969;1274;72982;-73
2022/08/19 11:12:36;;;;;;;12.60;5.90;;;;;;;38.40;31.47;99426.26;104948;1271;68648;-73
2022/08/19 11:15:24;;;;;;;15.40;6.00;;;;;;;38.86;30.84;99422.02;105098;1271;71577;-73
2022/08/19 11:18:17;;;;;;;11.10;5.40;;;;;;;38.92;30.17;99413.52;105025;1271;59551;-72
2022/08/19 11:21:16;;;;;;;12.50;5.10;;;;;;;39.27;29.29;99406.37;105085;1271;61791;-73
2022/08/19 11:24:52;;;;;;;9.60;4.50;;;;;;;39.41;29.24;99403.73;104924;1271;71748;-72
2022/08/19 11:29:11;;;;;;;12.10;5.00;;;;;;;39.40;29.20;99397.87;105389;1271;68035;-73
2022/08/19 11:32:34;;;;;;;11.10;5.20;;;;;;;39.24;29.81;99394.19;104593;1277;71579;-72
2022/08/19 11:35:24;;;;;;;9.90;5.20;;;;;;;39.30;29.88;99392.52;104754;1277;59624;-74
2022/08/19 11:38:14;;;;;;;14.10;5.10;;;;;;;39.38;30.31;99398.27;104587;1278;62114;-75
2022/08/19 11:46:11;;;;;;;14.50;5.40;;;;;;;38.70;30.61;99396.19;104061;1285;66656;-73
2022/08/19 11:49:04;;;;;;;11.10;5.40;;;;;;;38.35;31.10;99393.86;104065;1286;72943;-75
2022/08/19 11:51:54;;;;;;;14.60;5.10;;;;;;;38.14;31.87;99388.15;104020;1285;59901;-73
2022/08/19 11:54:42;;;;;;;11.40;5.40;;;;;;;37.91;32.04;99381.89;103789;1285;61144;-74
2022/08/19 11:57:46;;;;;;;13.00;5.20;;;;;;;37.79;32.21;99372.73;103789;1285;72780;-75
2022/08/19 12:00:48;;;;;;;13.30;5.60;;;;;;;37.36;32.78;99366.15;104054;1285;68716;-75
2022/08/19 12:03:37;;;;;;;10.90;5.80;;;;;;;36.98;33.57;99359.82;103941;1285;74482;-73
2022/08/19 12:06:51;;;;;;;11.80;5.30;;;;;;;36.40;33.79;99362.55;104093;1285;59909;-75
2022/08/19 12:09:45;;;;;;;14.10;5.50;;;;;;;35.96;34.47;99360.70;104451;1280;59732;-75
2022/08/19 12:12:46;;;;;;;15.20;6.30;;;;;;;35.61;35.32;99355.54;104433;1279;74804;-72
2022/08/19 12:15:52;;;;;;;16.10;6.10;;;;;;;35.20;36.36;99356.41;104568;1279;66939;-71
2022/08/19 12:19:05;;;;;;;16.70;6.70;;;;;;;34.58;37.43;99357.89;104627;1279;72950;-73
2022/08/19 12:22:05;;;;;;;13.50;6.40;;;;;;;34.09;38.57;99362.13;104499;1271;59784;-74
2022/08/19 12:24:56;;;;;;;11.60;6.10;;;;;;;33.95;39.26;99354.67;104935;1273;60371;-72
2022/08/19 12:27:45;;;;;;;13.70;6.50;;;;;;;33.78;39.36;99354.77;105013;1271;73667;-73
2022/08/19 12:30:43;;;;;;;12.70;6.70;;;;;;;33.57;39.67;99357.98;104940;1273;67904;-73
2022/08/19 12:33:32;;;;;;;15.30;7.00;;;;;;;33.32;39.89;99352.79;105270;1271;73353;-74
2022/08/19 12:36:24;;;;;;;13.50;6.60;;;;;;;33.14;40.50;99358.84;105120;1271;59802;-74
2022/08/19 12:39:18;;;;;;;15.50;6.60;;;;;;;33.03;41.15;99359.58;105115;1271;60466;-75
2022/08/19 12:42:08;;;;;;;15.30;6.40;;;;;;;33.02;41.10;99361.68;105097;1271;73791;-73
2022/08/19 12:45:00;;;;;;;13.30;6.50;;;;;;;32.90;41.14;99358.17;105064;1271;68230;-73
2022/08/19 12:47:47;;;;;;;15.00;7.00;;;;;;;32.76;40.98;99348.56;105097;1271;71546;-74
2022/08/19 12:50:41;;;;;;;11.30;6.20;;;;;;;32.61;41.45;99344.47;104930;1271;59663;-72
2022/08/19 12:53:35;;;;;;;13.60;6.60;;;;;;;32.43;41.92;99343.41;104996;1271;59607;-73
2022/08/19 12:56:27;;;;;;;14.60;7.10;;;;;;;32.30;42.34;99339.45;104915;1271;74579;-73
2022/08/19 12:59:17;;;;;;;14.30;8.90;;;;;;;32.24;42.49;99338.91;104994;1271;68563;-74
2022/08/19 13:02:10;;;;;;;15.60;7.50;;;;;;;32.24;42.73;99331.70;105248;1270;73461;-74
2022/08/19 13:05:00;;;;;;;14.50;7.30;;;;;;;32.20;42.59;99329.02;105002;1271;59714;-74
2022/08/19 13:07:56;;;;;;;14.90;7.60;;;;;;;32.07;42.75;99327.82;105107;1271;59719;-75
2022/08/19 13:10:44;;;;;;;12.30;7.30;;;;;;;31.93;43.34;99320.97;104986;1271;71882;-74
2022/08/19 13:13:31;;;;;;;17.50;7.50;;;;;;;31.78;43.54;99316.45;105064;1271;68442;-75
2022/08/19 13:16:21;;;;;;;14.90;7.40;;;;;;;31.80;43.78;99308.41;104944;1274;74087;-74
2022/08/19 13:19:10;;;;;;;13.40;6.60;;;;;;;31.88;43.73;99310.87;105073;1271;59835;-73
2022/08/19 13:21:58;;;;;;;13.40;6.60;;;;;;;31.83;43.39;99313.48;105209;1271;60431;-72
2022/08/19 13:24:48;;;;;;;12.80;7.00;;;;;;;31.85;43.55;99313.29;105472;1274;73014;-74
2022/08/19 13:27:37;;;;;;;15.20;7.90;;;;;;;32.07;43.58;99311.41;105218;1271;68137;-73
2022/08/19 13:33:32;;;;;;;18.60;9.60;;;;;;;32.30;43.08;99311.53;104918;1274;60102;-71
2022/08/19 13:36:20;;;;;;;23.90;18.10;;;;;;;32.30;43.07;99311.58;105243;1271;62045;-71
2022/08/19 13:39:09;;;;;;;14.50;7.20;;;;;;;32.35;42.94;99305.78;100442;1271;3650982;-73
2022/08/19 13:41:58;;;;;;;14.50;9.80;;;;;;;32.28;42.69;99297.34;104960;1274;72612;-72